createdAt,value
2023-01-08T00:00:13.652Z,811.60
2023-01-08T00:01:13.676Z,811.62
2023-01-08T00:02:13.681Z,811.68
2023-01-08T00:03:13.796Z,811.72
2023-01-08T00:04:13.724Z,811.78
2023-01-08T00:05:13.703Z,811.74
2023-01-08T00:06:13.698Z,811.74
2023-01-08T00:07:13.720Z,811.71
2023-01-08T00:08:13.702Z,811.64
2023-01-08T00:09:13.709Z,811.60
2023-01-08T00:10:13.710Z,811.55
2023-01-08T00:11:13.732Z,811.49
2023-01-08T00:12:13.723Z,811.46
2023-01-08T00:13:13.735Z,811.42
2023-01-08T00:14:13.849Z,811.39
2023-01-08T00:15:13.743Z,811.34
2023-01-08T00:16:13.857Z,811.34
2023-01-08T00:17:13.756Z,811.34
2023-01-08T00:18:13.777Z,811.39
2023-01-08T00:19:13.774Z,811.39
2023-01-08T00:20:13.777Z,811.35
2023-01-08T00:21:13.783Z,811.31
2023-01-08T00:22:13.781Z,811.28
2023-01-08T00:23:13.790Z,811.24
2023-01-08T00:24:13.795Z,811.17
2023-01-08T00:25:13.813Z,811.19
2023-01-08T00:26:13.812Z,811.18
2023-01-08T00:27:13.835Z,811.13
2023-01-08T00:28:13.816Z,811.13
2023-01-08T00:29:13.830Z,811.13
2023-01-08T00:30:13.946Z,811.14
2023-01-08T00:31:13.882Z,811.13
2023-01-08T00:32:13.854Z,811.20
2023-01-08T00:33:13.850Z,811.18
2023-01-08T00:34:13.848Z,811.18
2023-01-08T00:35:13.860Z,811.16
2023-01-08T00:36:13.896Z,811.14
2023-01-08T00:37:13.873Z,811.13
2023-01-08T00:38:13.877Z,811.14
2023-01-08T00:39:13.884Z,811.13
2023-01-08T00:40:13.899Z,811.13
2023-01-08T00:41:13.902Z,811.10
2023-01-08T00:42:13.898Z,811.13
2023-01-08T00:43:13.910Z,811.10
2023-01-08T00:44:13.912Z,811.07
2023-01-08T00:45:13.918Z,811.13
2023-01-08T00:46:14.223Z,811.06
2023-01-08T00:47:13.935Z,811.05
2023-01-08T00:48:13.932Z,811.06
2023-01-08T00:49:13.954Z,811.04
2023-01-08T00:50:13.962Z,811.00
2023-01-08T00:51:13.968Z,811.00
2023-01-08T00:52:13.958Z,810.99
2023-01-08T00:53:13.966Z,810.93
2023-01-08T00:54:13.975Z,810.94
2023-01-08T00:55:13.988Z,810.93
2023-01-08T00:56:13.978Z,810.93
2023-01-08T00:57:13.988Z,810.92
2023-01-08T00:58:13.993Z,810.93
2023-01-08T00:59:14.018Z,810.90
2023-01-08T01:00:14.004Z,810.95
2023-01-08T01:01:14.221Z,810.90
2023-01-08T01:02:14.189Z,810.90
2023-01-08T01:03:14.021Z,810.92
2023-01-08T01:04:14.052Z,810.92
2023-01-08T01:05:14.041Z,810.88
2023-01-08T01:06:14.065Z,810.86
2023-01-08T01:07:14.045Z,810.88
2023-01-08T01:08:14.045Z,810.89
2023-01-08T01:09:14.061Z,810.91
2023-01-08T01:10:14.060Z,810.98
2023-01-08T01:11:14.066Z,810.98
2023-01-08T01:12:14.080Z,811.02
2023-01-08T01:13:14.079Z,811.09
2023-01-08T01:14:14.083Z,811.12
2023-01-08T01:15:14.088Z,811.09
2023-01-08T01:16:14.115Z,811.09
2023-01-08T01:17:14.100Z,811.05
2023-01-08T01:18:14.124Z,811.06
2023-01-08T01:19:14.114Z,811.10
2023-01-08T01:20:14.112Z,811.09
2023-01-08T01:21:14.129Z,811.12
2023-01-08T01:22:14.135Z,811.14
2023-01-08T01:23:14.133Z,811.16
2023-01-08T01:24:14.145Z,811.11
2023-01-08T01:25:14.143Z,811.12
2023-01-08T01:26:14.151Z,811.12
2023-01-08T01:27:14.169Z,811.11
2023-01-08T01:28:14.158Z,811.18
2023-01-08T01:29:14.164Z,811.13
2023-01-08T01:30:14.163Z,811.21
2023-01-08T01:31:14.262Z,811.22
2023-01-08T01:32:14.178Z,811.20
2023-01-08T01:33:14.219Z,811.21
2023-01-08T01:34:14.315Z,811.25
2023-01-08T01:35:14.199Z,811.25
2023-01-08T01:36:14.212Z,811.30
2023-01-08T01:37:14.224Z,811.26
2023-01-08T01:38:14.220Z,811.33
2023-01-08T01:39:14.218Z,811.32
2023-01-08T01:40:14.222Z,811.32
2023-01-08T01:41:14.230Z,811.34
2023-01-08T01:42:14.232Z,811.32
2023-01-08T01:43:14.267Z,811.27
2023-01-08T01:44:14.249Z,811.26
2023-01-08T01:45:14.250Z,811.27
2023-01-08T01:46:14.295Z,811.29
2023-01-08T01:47:14.271Z,811.27
2023-01-08T01:48:14.268Z,811.25
2023-01-08T01:49:14.280Z,811.25
2023-01-08T01:50:14.407Z,811.22
2023-01-08T01:51:14.284Z,811.16
2023-01-08T01:52:14.287Z,811.16
2023-01-08T01:53:14.313Z,811.12
2023-01-08T01:54:14.297Z,811.14
2023-01-08T01:55:14.334Z,811.12
2023-01-08T01:56:14.314Z,811.16
2023-01-08T01:57:14.318Z,811.16
2023-01-08T01:58:14.321Z,811.15
2023-01-08T01:59:14.335Z,811.14
2023-01-08T02:00:14.332Z,811.14
2023-01-08T02:01:14.483Z,811.15
2023-01-08T02:02:14.514Z,811.16
2023-01-08T02:03:14.349Z,811.17
2023-01-08T02:04:14.495Z,811.10
2023-01-08T02:05:14.362Z,811.00
2023-01-08T02:06:14.478Z,810.87
2023-01-08T02:07:14.374Z,810.77
2023-01-08T02:08:14.388Z,810.67
2023-01-08T02:09:14.404Z,810.64
2023-01-08T02:10:14.386Z,810.63
2023-01-08T02:11:14.393Z,810.64
2023-01-08T02:12:14.411Z,810.70
2023-01-08T02:13:14.413Z,810.64
2023-01-08T02:14:14.411Z,810.67
2023-01-08T02:15:14.435Z,810.60
2023-01-08T02:16:14.520Z,810.51
2023-01-08T02:17:14.436Z,810.51
2023-01-08T02:18:14.432Z,810.52
2023-01-08T02:19:14.440Z,810.48
2023-01-08T02:20:14.444Z,810.46
2023-01-08T02:21:14.458Z,810.44
2023-01-08T02:22:14.573Z,810.47
2023-01-08T02:23:14.470Z,810.49
2023-01-08T02:24:14.460Z,810.47
2023-01-08T02:25:14.471Z,810.51
2023-01-08T02:26:14.478Z,810.50
2023-01-08T02:27:14.499Z,810.47
2023-01-08T02:28:14.481Z,810.40
2023-01-08T02:29:14.489Z,810.37
2023-01-08T02:30:14.489Z,810.34
2023-01-08T02:31:14.574Z,810.29
2023-01-08T02:32:14.503Z,810.29
2023-01-08T02:33:14.510Z,810.32
2023-01-08T02:34:14.517Z,810.29
2023-01-08T02:35:14.542Z,810.29
2023-01-08T02:36:14.527Z,810.21
2023-01-08T02:37:14.538Z,810.18
2023-01-08T02:38:14.642Z,810.15
2023-01-08T02:39:14.557Z,810.07
2023-01-08T02:40:14.551Z,810.01
2023-01-08T02:41:14.577Z,809.96
2023-01-08T02:42:14.556Z,809.92
2023-01-08T02:43:14.576Z,809.92
2023-01-08T02:44:14.570Z,809.89
2023-01-08T02:45:14.573Z,809.93
2023-01-08T02:46:14.611Z,809.86
2023-01-08T02:47:14.584Z,809.86
2023-01-08T02:48:14.594Z,809.87
2023-01-08T02:49:14.594Z,809.88
2023-01-08T02:50:14.599Z,809.92
2023-01-08T02:51:14.609Z,809.93
2023-01-08T02:52:14.613Z,809.91
2023-01-08T02:53:14.638Z,809.89
2023-01-08T02:54:14.746Z,809.87
2023-01-08T02:55:14.655Z,809.82
2023-01-08T02:56:14.636Z,809.82
2023-01-08T02:57:14.644Z,809.83
2023-01-08T02:58:14.636Z,809.90
2023-01-08T02:59:14.648Z,809.88
2023-01-08T03:00:14.659Z,809.95
2023-01-08T03:01:14.804Z,809.92
2023-01-08T03:02:14.981Z,809.88
2023-01-08T03:03:14.669Z,809.86
2023-01-08T03:04:14.755Z,809.80
2023-01-08T03:05:14.693Z,809.79
2023-01-08T03:06:14.686Z,809.70
2023-01-08T03:07:14.692Z,809.64
2023-01-08T03:08:14.706Z,809.57
2023-01-08T03:09:14.713Z,809.51
2023-01-08T03:10:14.831Z,809.56
2023-01-08T03:11:14.716Z,809.60
2023-01-08T03:12:14.714Z,809.61
2023-01-08T03:13:14.725Z,809.60
2023-01-08T03:14:14.727Z,809.66
2023-01-08T03:15:14.749Z,809.67
2023-01-08T03:16:14.750Z,809.69
2023-01-08T03:17:14.743Z,809.71
2023-01-08T03:18:14.746Z,809.68
2023-01-08T03:19:15.389Z,809.65
2023-01-08T03:20:14.763Z,809.67
2023-01-08T03:21:14.771Z,809.69
2023-01-08T03:22:14.772Z,809.69
2023-01-08T03:23:14.779Z,809.72
2023-01-08T03:24:14.776Z,809.72
2023-01-08T03:25:14.794Z,809.75
2023-01-08T03:26:15.025Z,809.74
2023-01-08T03:27:14.794Z,809.73
2023-01-08T03:28:14.815Z,809.76
2023-01-08T03:29:14.814Z,809.80
2023-01-08T03:30:14.818Z,809.83
2023-01-08T03:31:14.867Z,809.84
2023-01-08T03:32:14.818Z,809.85
2023-01-08T03:33:14.834Z,809.93
2023-01-08T03:34:14.842Z,809.93
2023-01-08T03:35:14.836Z,809.94
2023-01-08T03:36:14.841Z,809.94
2023-01-08T03:37:14.846Z,809.98
2023-01-08T03:38:14.851Z,809.97
2023-01-08T03:39:14.910Z,810.04
2023-01-08T03:40:14.861Z,810.08
2023-01-08T03:41:14.871Z,810.12
2023-01-08T03:42:14.981Z,810.09
2023-01-08T03:43:14.885Z,810.07
2023-01-08T03:44:14.896Z,810.09
2023-01-08T03:45:14.887Z,810.12
2023-01-08T03:46:15.042Z,810.16
2023-01-08T03:47:14.917Z,810.18
2023-01-08T03:48:14.905Z,810.11
2023-01-08T03:49:14.915Z,810.10
2023-01-08T03:50:14.915Z,810.06
2023-01-08T03:51:14.921Z,810.02
2023-01-08T03:52:14.918Z,810.01
2023-01-08T03:53:14.944Z,810.04
2023-01-08T03:54:14.930Z,810.01
2023-01-08T03:55:14.940Z,810.04
2023-01-08T03:56:14.943Z,810.01
2023-01-08T03:57:14.951Z,809.99
2023-01-08T03:58:14.969Z,810.01
2023-01-08T03:59:14.969Z,810.01
2023-01-08T04:00:14.973Z,810.01
2023-01-08T04:01:15.158Z,809.95
2023-01-08T04:02:15.160Z,809.92
2023-01-08T04:03:14.989Z,809.97
2023-01-08T04:04:15.041Z,809.97
2023-01-08T04:05:14.991Z,809.98
2023-01-08T04:06:14.990Z,809.99
2023-01-08T04:07:15.011Z,809.99
2023-01-08T04:08:15.024Z,809.96
2023-01-08T04:09:15.025Z,809.97
2023-01-08T04:10:15.011Z,809.95
2023-01-08T04:11:15.040Z,810.00
2023-01-08T04:12:15.023Z,810.04
2023-01-08T04:13:15.038Z,810.08
2023-01-08T04:14:15.152Z,810.06
2023-01-08T04:15:15.044Z,810.03
2023-01-08T04:16:15.110Z,810.00
2023-01-08T04:17:15.065Z,809.93
2023-01-08T04:18:15.069Z,809.97
2023-01-08T04:19:15.086Z,810.01
2023-01-08T04:20:15.070Z,809.99
2023-01-08T04:21:15.071Z,810.01
2023-01-08T04:22:15.081Z,809.95
2023-01-08T04:23:15.085Z,809.98
2023-01-08T04:24:15.088Z,809.96
2023-01-08T04:25:15.095Z,809.95
2023-01-08T04:26:15.117Z,809.95
2023-01-08T04:27:15.100Z,809.91
2023-01-08T04:28:15.115Z,809.90
2023-01-08T04:29:15.116Z,809.87
2023-01-08T04:30:15.241Z,809.94
2023-01-08T04:31:15.203Z,809.95
2023-01-08T04:32:15.129Z,809.94
2023-01-08T04:33:15.131Z,809.89
2023-01-08T04:34:15.138Z,809.85
2023-01-08T04:35:15.139Z,809.78
2023-01-08T04:36:15.147Z,809.75
2023-01-08T04:37:15.150Z,809.75
2023-01-08T04:38:15.158Z,809.73
2023-01-08T04:39:15.169Z,809.71
2023-01-08T04:40:15.185Z,809.76
2023-01-08T04:41:15.205Z,809.78
2023-01-08T04:42:15.179Z,809.74
2023-01-08T04:43:15.185Z,809.70
2023-01-08T04:44:15.192Z,809.69
2023-01-08T04:45:15.195Z,809.69
2023-01-08T04:46:15.410Z,809.62
2023-01-08T04:47:15.200Z,809.59
2023-01-08T04:48:15.218Z,809.52
2023-01-08T04:49:15.217Z,809.51
2023-01-08T04:50:15.226Z,809.56
2023-01-08T04:51:15.222Z,809.55
2023-01-08T04:52:15.233Z,809.60
2023-01-08T04:53:15.238Z,809.62
2023-01-08T04:54:15.259Z,809.58
2023-01-08T04:55:15.249Z,809.53
2023-01-08T04:56:15.260Z,809.50
2023-01-08T04:57:15.253Z,809.55
2023-01-08T04:58:15.272Z,809.57
2023-01-08T04:59:15.267Z,809.58
2023-01-08T05:00:15.277Z,809.59
2023-01-08T05:01:15.398Z,809.54
2023-01-08T05:02:15.635Z,809.56
2023-01-08T05:03:15.355Z,809.60
2023-01-08T05:04:15.300Z,809.63
2023-01-08T05:05:15.300Z,809.64
2023-01-08T05:06:15.307Z,809.64
2023-01-08T05:07:15.312Z,809.62
2023-01-08T05:08:15.316Z,809.57
2023-01-08T05:09:15.320Z,809.57
2023-01-08T05:10:15.329Z,809.51
2023-01-08T05:11:15.340Z,809.58
2023-01-08T05:12:15.342Z,809.62
2023-01-08T05:13:15.343Z,809.65
2023-01-08T05:14:15.351Z,809.68
2023-01-08T05:15:15.355Z,809.68
2023-01-08T05:16:15.454Z,809.67
2023-01-08T05:17:15.374Z,809.64
2023-01-08T05:18:15.484Z,809.61
2023-01-08T05:19:15.376Z,809.57
2023-01-08T05:20:15.503Z,809.61
2023-01-08T05:21:15.398Z,809.62
2023-01-08T05:22:15.394Z,809.64
2023-01-08T05:23:15.396Z,809.65
2023-01-08T05:24:15.412Z,809.64
2023-01-08T05:25:15.409Z,809.60
2023-01-08T05:26:15.423Z,809.55
2023-01-08T05:27:15.422Z,809.46
2023-01-08T05:28:15.430Z,809.39
2023-01-08T05:29:15.432Z,809.31
2023-01-08T05:30:15.442Z,809.25
2023-01-08T05:31:15.531Z,809.21
2023-01-08T05:32:15.450Z,809.21
2023-01-08T05:33:15.455Z,809.21
2023-01-08T05:34:15.484Z,809.20
2023-01-08T05:35:15.470Z,809.19
2023-01-08T05:36:15.475Z,809.18
2023-01-08T05:37:15.475Z,809.13
2023-01-08T05:38:15.486Z,809.11
2023-01-08T05:39:15.505Z,809.13
2023-01-08T05:40:15.512Z,809.16
2023-01-08T05:41:15.500Z,809.17
2023-01-08T05:42:15.510Z,809.23
2023-01-08T05:43:15.511Z,809.17
2023-01-08T05:44:15.521Z,809.19
2023-01-08T05:45:15.545Z,809.18
2023-01-08T05:46:15.615Z,809.11
2023-01-08T05:47:15.540Z,809.10
2023-01-08T05:48:15.548Z,809.09
2023-01-08T05:49:16.931Z,809.11
2023-01-08T05:50:15.684Z,809.17
2023-01-08T05:51:15.556Z,809.23
2023-01-08T05:52:15.565Z,809.24
2023-01-08T05:53:15.565Z,809.26
2023-01-08T05:54:15.575Z,809.23
2023-01-08T05:55:15.578Z,809.18
2023-01-08T05:56:15.585Z,809.17
2023-01-08T05:57:15.596Z,809.17
2023-01-08T05:58:15.598Z,809.22
2023-01-08T05:59:15.606Z,809.25
2023-01-08T06:00:15.609Z,809.19
2023-01-08T06:01:15.727Z,809.22
2023-01-08T06:02:15.620Z,809.23
2023-01-08T06:03:15.636Z,809.25
2023-01-08T06:04:15.695Z,809.28
2023-01-08T06:05:15.768Z,809.31
2023-01-08T06:06:15.752Z,809.36
2023-01-08T06:07:15.663Z,809.39
2023-01-08T06:08:15.660Z,809.32
2023-01-08T06:09:15.656Z,809.30
2023-01-08T06:10:15.666Z,809.26
2023-01-08T06:11:15.669Z,809.22
2023-01-08T06:12:15.677Z,809.20
2023-01-08T06:13:15.688Z,809.19
2023-01-08T06:14:15.696Z,809.16
2023-01-08T06:15:15.696Z,809.09
2023-01-08T06:16:15.738Z,809.07
2023-01-08T06:17:15.699Z,809.07
2023-01-08T06:18:15.711Z,808.99
2023-01-08T06:19:15.711Z,808.92
2023-01-08T06:20:15.727Z,808.84
2023-01-08T06:21:15.740Z,808.80
2023-01-08T06:22:15.853Z,808.83
2023-01-08T06:23:15.735Z,808.91
2023-01-08T06:24:15.745Z,808.92
2023-01-08T06:25:15.754Z,808.98
2023-01-08T06:26:15.753Z,808.95
2023-01-08T06:27:15.857Z,808.95
2023-01-08T06:28:15.789Z,808.97
2023-01-08T06:29:15.868Z,809.02
2023-01-08T06:30:15.772Z,808.99
2023-01-08T06:31:15.840Z,809.02
2023-01-08T06:32:15.792Z,809.06
2023-01-08T06:33:15.802Z,809.07
2023-01-08T06:34:15.796Z,809.10
2023-01-08T06:35:15.817Z,809.11
2023-01-08T06:36:15.805Z,809.12
2023-01-08T06:37:15.816Z,809.13
2023-01-08T06:38:15.949Z,809.16
2023-01-08T06:39:15.822Z,809.20
2023-01-08T06:40:15.851Z,809.20
2023-01-08T06:41:15.839Z,809.14
2023-01-08T06:42:15.843Z,809.09
2023-01-08T06:43:15.853Z,809.03
2023-01-08T06:44:15.868Z,809.00
2023-01-08T06:45:15.857Z,808.97
2023-01-08T06:46:15.889Z,808.96
2023-01-08T06:47:15.866Z,809.00
2023-01-08T06:48:15.894Z,809.01
2023-01-08T06:49:15.878Z,808.98
2023-01-08T06:50:15.885Z,809.00
2023-01-08T06:51:15.888Z,809.02
2023-01-08T06:52:15.901Z,809.05
2023-01-08T06:53:15.905Z,809.05
2023-01-08T06:54:16.019Z,809.07
2023-01-08T06:55:15.913Z,809.11
2023-01-08T06:56:15.925Z,809.17
2023-01-08T06:57:15.923Z,809.13
2023-01-08T06:58:15.941Z,809.15
2023-01-08T06:59:15.933Z,809.20
2023-01-08T07:00:15.975Z,809.17
2023-01-08T07:01:16.272Z,809.15
2023-01-08T07:02:16.259Z,809.15
2023-01-08T07:03:16.025Z,809.13
2023-01-08T07:04:15.995Z,809.13
2023-01-08T07:05:15.969Z,809.18
2023-01-08T07:06:15.982Z,809.16
2023-01-08T07:07:15.984Z,809.21
2023-01-08T07:08:15.989Z,809.20
2023-01-08T07:09:15.999Z,809.20
2023-01-08T07:10:17.465Z,809.21
2023-01-08T07:11:15.998Z,809.19
2023-01-08T07:12:16.009Z,809.22
2023-01-08T07:13:16.010Z,809.22
2023-01-08T07:14:16.036Z,809.24
2023-01-08T07:15:16.043Z,809.29
2023-01-08T07:16:16.190Z,809.26
2023-01-08T07:17:16.034Z,809.27
2023-01-08T07:18:16.042Z,809.28
2023-01-08T07:19:16.049Z,809.29
2023-01-08T07:20:16.056Z,809.29
2023-01-08T07:21:16.056Z,809.31
2023-01-08T07:22:16.062Z,809.31
2023-01-08T07:23:16.066Z,809.31
2023-01-08T07:24:16.077Z,809.32
2023-01-08T07:25:16.089Z,809.36
2023-01-08T07:26:16.203Z,809.37
2023-01-08T07:27:16.087Z,809.41
2023-01-08T07:28:16.109Z,809.40
2023-01-08T07:29:16.103Z,809.40
2023-01-08T07:30:28.934Z,809.42
2023-01-08T07:31:16.182Z,809.41
2023-01-08T07:32:16.120Z,809.40
2023-01-08T07:33:16.122Z,809.43
2023-01-08T07:34:16.137Z,809.41
2023-01-08T07:35:16.135Z,809.34
2023-01-08T07:36:16.142Z,809.37
2023-01-08T07:37:16.144Z,809.37
2023-01-08T07:38:16.155Z,809.40
2023-01-08T07:39:16.159Z,809.44
2023-01-08T07:40:16.186Z,809.49
2023-01-08T07:41:16.167Z,809.52
2023-01-08T07:42:16.299Z,809.56
2023-01-08T07:43:16.190Z,809.57
2023-01-08T07:44:16.196Z,809.61
2023-01-08T07:45:16.197Z,809.59
2023-01-08T07:46:16.259Z,809.62
2023-01-08T07:47:16.200Z,809.60
2023-01-08T07:48:16.212Z,809.63
2023-01-08T07:49:16.213Z,809.63
2023-01-08T07:50:16.221Z,809.63
2023-01-08T07:51:16.223Z,809.59
2023-01-08T07:52:16.239Z,809.62
2023-01-08T07:53:16.237Z,809.58
2023-01-08T07:54:16.243Z,809.60
2023-01-08T07:55:16.248Z,809.58
2023-01-08T07:56:16.258Z,809.52
2023-01-08T07:57:16.269Z,809.52
2023-01-08T07:58:16.387Z,809.48
2023-01-08T07:59:16.301Z,809.41
2023-01-08T08:00:16.274Z,809.43
2023-01-08T08:01:16.319Z,809.44
2023-01-08T08:02:16.406Z,809.44
2023-01-08T08:03:16.359Z,809.49
2023-01-08T08:04:16.302Z,809.47
2023-01-08T08:05:16.302Z,809.49
2023-01-08T08:06:16.307Z,809.50
2023-01-08T08:07:16.342Z,809.48
2023-01-08T08:08:16.323Z,809.47
2023-01-08T08:09:16.323Z,809.50
2023-01-08T08:10:16.328Z,809.50
2023-01-08T08:11:16.345Z,809.54
2023-01-08T08:12:16.339Z,809.54
2023-01-08T08:13:16.355Z,809.51
2023-01-08T08:14:16.467Z,809.55
2023-01-08T08:15:16.365Z,809.52
2023-01-08T08:16:16.404Z,809.50
2023-01-08T08:17:16.367Z,809.53
2023-01-08T08:18:16.372Z,809.60
2023-01-08T08:19:16.400Z,809.61
2023-01-08T08:20:16.414Z,809.71
2023-01-08T08:21:16.389Z,809.74
2023-01-08T08:22:16.394Z,809.73
2023-01-08T08:23:16.391Z,809.81
2023-01-08T08:24:16.406Z,809.81
2023-01-08T08:25:16.401Z,809.86
2023-01-08T08:26:16.424Z,809.86
2023-01-08T08:27:16.414Z,809.91
2023-01-08T08:28:16.421Z,809.88
2023-01-08T08:29:16.423Z,809.90
2023-01-08T08:30:16.553Z,809.87
2023-01-08T08:31:16.510Z,809.83
2023-01-08T08:32:16.435Z,809.86
2023-01-08T08:33:16.452Z,809.88
2023-01-08T08:34:16.447Z,809.86
2023-01-08T08:35:16.456Z,809.89
2023-01-08T08:36:16.463Z,809.87
2023-01-08T08:37:16.469Z,809.86
2023-01-08T08:38:16.466Z,809.85
2023-01-08T08:39:16.477Z,809.85
2023-01-08T08:40:16.480Z,809.87
2023-01-08T08:41:16.485Z,809.80
2023-01-08T08:42:16.487Z,809.77
2023-01-08T08:43:16.525Z,809.76
2023-01-08T08:44:16.514Z,809.81
2023-01-08T08:45:16.520Z,809.84
2023-01-08T08:46:16.676Z,809.84
2023-01-08T08:47:16.514Z,809.91
2023-01-08T08:48:16.516Z,809.93
2023-01-08T08:49:16.523Z,809.94
2023-01-08T08:50:16.536Z,809.96
2023-01-08T08:51:16.531Z,809.91
2023-01-08T08:52:16.534Z,809.91
2023-01-08T08:53:16.546Z,809.89
2023-01-08T08:54:16.542Z,809.89
2023-01-08T08:55:16.552Z,809.90
2023-01-08T08:56:16.552Z,809.89
2023-01-08T08:57:16.561Z,809.89
2023-01-08T08:58:16.565Z,809.88
2023-01-08T08:59:16.573Z,809.91
2023-01-08T09:00:16.600Z,809.92
2023-01-08T09:01:16.658Z,809.90
2023-01-08T09:02:17.024Z,809.92
2023-01-08T09:03:16.715Z,809.90
2023-01-08T09:04:16.592Z,809.89
2023-01-08T09:05:16.599Z,809.84
2023-01-08T09:06:16.599Z,809.84
2023-01-08T09:07:16.607Z,809.80
2023-01-08T09:08:16.637Z,809.78
2023-01-08T09:09:16.621Z,809.77
2023-01-08T09:10:16.648Z,809.71
2023-01-08T09:11:16.623Z,809.72
2023-01-08T09:12:16.628Z,809.74
2023-01-08T09:13:16.638Z,809.79
2023-01-08T09:14:16.634Z,809.78
2023-01-08T09:15:16.651Z,809.82
2023-01-08T09:16:16.723Z,809.75
2023-01-08T09:17:16.650Z,809.73
2023-01-08T09:18:16.764Z,809.75
2023-01-08T09:19:16.661Z,809.75
2023-01-08T09:20:16.683Z,809.75
2023-01-08T09:21:16.691Z,809.71
2023-01-08T09:22:16.685Z,809.70
2023-01-08T09:23:16.680Z,809.66
2023-01-08T09:24:16.684Z,809.66
2023-01-08T09:25:16.689Z,809.67
2023-01-08T09:26:16.685Z,809.66
2023-01-08T09:27:16.697Z,809.63
2023-01-08T09:28:16.693Z,809.63
2023-01-08T09:29:16.703Z,809.59
2023-01-08T09:30:16.703Z,809.53
2023-01-08T09:31:16.875Z,809.48
2023-01-08T09:32:16.715Z,809.43
2023-01-08T09:33:16.723Z,809.41
2023-01-08T09:34:16.837Z,809.45
2023-01-08T09:35:16.752Z,809.45
2023-01-08T09:36:16.741Z,809.48
2023-01-08T09:37:16.740Z,809.43
2023-01-08T09:38:16.751Z,809.40
2023-01-08T09:39:16.762Z,809.37
2023-01-08T09:40:16.746Z,809.33
2023-01-08T09:41:16.769Z,809.33
2023-01-08T09:42:16.764Z,809.29
2023-01-08T09:43:16.804Z,809.30
2023-01-08T09:44:16.780Z,809.28
2023-01-08T09:45:16.786Z,809.27
2023-01-08T09:46:16.839Z,809.22
2023-01-08T09:47:16.792Z,809.24
2023-01-08T09:48:16.810Z,809.29
2023-01-08T09:49:16.812Z,809.28
2023-01-08T09:50:16.911Z,809.27
2023-01-08T09:51:16.820Z,809.26
2023-01-08T09:52:16.806Z,809.28
2023-01-08T09:53:16.824Z,809.29
2023-01-08T09:54:16.813Z,809.28
2023-01-08T09:55:16.819Z,809.24
2023-01-08T09:56:16.826Z,809.25
2023-01-08T09:57:16.830Z,809.24
2023-01-08T09:58:16.835Z,809.21
2023-01-08T09:59:16.850Z,809.18
2023-01-08T10:00:16.842Z,809.14
2023-01-08T10:01:17.069Z,809.14
2023-01-08T10:02:17.009Z,809.12
2023-01-08T10:03:16.859Z,809.13
2023-01-08T10:04:16.863Z,809.12
2023-01-08T10:05:16.883Z,809.10
2023-01-08T10:06:17.005Z,809.13
2023-01-08T10:07:16.878Z,809.10
2023-01-08T10:08:16.881Z,809.08
2023-01-08T10:09:16.895Z,809.05
2023-01-08T10:10:16.890Z,809.07
2023-01-08T10:11:16.897Z,809.05
2023-01-08T10:12:16.899Z,809.08
2023-01-08T10:13:16.913Z,809.05
2023-01-08T10:14:16.913Z,809.04
2023-01-08T10:15:16.914Z,809.02
2023-01-08T10:16:16.934Z,808.98
2023-01-08T10:17:16.932Z,808.98
2023-01-08T10:18:16.929Z,808.95
2023-01-08T10:19:16.936Z,808.94
2023-01-08T10:20:16.942Z,808.93
2023-01-08T10:21:16.949Z,808.90
2023-01-08T10:22:16.993Z,808.93
2023-01-08T10:23:16.967Z,808.88
2023-01-08T10:24:16.968Z,808.83
2023-01-08T10:25:16.973Z,808.82
2023-01-08T10:26:16.968Z,808.79
2023-01-08T10:27:16.984Z,808.82
2023-01-08T10:28:16.979Z,808.73
2023-01-08T10:29:16.997Z,808.74
2023-01-08T10:30:16.996Z,808.82
2023-01-08T10:31:17.096Z,808.76
2023-01-08T10:32:17.012Z,808.75
2023-01-08T10:33:17.010Z,808.72
2023-01-08T10:34:17.016Z,808.72
2023-01-08T10:35:17.020Z,808.75
2023-01-08T10:36:17.017Z,808.70
2023-01-08T10:37:17.024Z,808.68
2023-01-08T10:38:17.140Z,808.68
2023-01-08T10:39:17.038Z,808.69
2023-01-08T10:40:17.039Z,808.67
2023-01-08T10:41:17.059Z,808.63
2023-01-08T10:42:17.068Z,808.65
2023-01-08T10:43:17.079Z,808.61
2023-01-08T10:44:17.060Z,808.60
2023-01-08T10:45:17.068Z,808.56
2023-01-08T10:46:17.074Z,808.57
2023-01-08T10:47:17.079Z,808.59
2023-01-08T10:48:17.086Z,808.62
2023-01-08T10:49:17.086Z,808.54
2023-01-08T10:50:17.092Z,808.51
2023-01-08T10:51:17.104Z,808.55
2023-01-08T10:52:17.106Z,808.54
2023-01-08T10:53:17.116Z,808.54
2023-01-08T10:54:17.127Z,808.54
2023-01-08T10:55:17.118Z,808.60
2023-01-08T10:56:17.119Z,808.59
2023-01-08T10:57:17.130Z,808.59
2023-01-08T10:58:17.126Z,808.54
2023-01-08T10:59:17.137Z,808.51
2023-01-08T11:00:17.139Z,808.52
2023-01-08T11:01:17.391Z,808.51
2023-01-08T11:02:17.212Z,808.51
2023-01-08T11:03:17.156Z,808.51
2023-01-08T11:04:17.158Z,808.55
2023-01-08T11:05:17.176Z,808.50
2023-01-08T11:06:17.185Z,808.45
2023-01-08T11:07:17.177Z,808.38
2023-01-08T11:08:17.180Z,808.37
2023-01-08T11:09:17.203Z,808.36
2023-01-08T11:10:18.232Z,808.30
2023-01-08T11:11:17.199Z,808.38
2023-01-08T11:12:17.213Z,808.34
2023-01-08T11:13:17.212Z,808.34
2023-01-08T11:14:17.218Z,808.29
2023-01-08T11:15:17.219Z,808.28
2023-01-08T11:16:17.292Z,808.26
2023-01-08T11:17:17.232Z,808.16
2023-01-08T11:18:17.239Z,808.12
2023-01-08T11:19:17.859Z,808.10
2023-01-08T11:20:17.242Z,808.04
2023-01-08T11:21:17.251Z,807.97
2023-01-08T11:22:17.253Z,807.94
2023-01-08T11:23:17.267Z,807.85
2023-01-08T11:24:17.273Z,807.82
2023-01-08T11:25:17.273Z,807.78
2023-01-08T11:26:17.323Z,807.70
2023-01-08T11:27:17.283Z,807.64
2023-01-08T11:28:17.294Z,807.51
2023-01-08T11:29:17.306Z,807.56
2023-01-08T11:30:17.300Z,807.56
2023-01-08T11:31:17.359Z,807.61
2023-01-08T11:32:17.314Z,807.66
2023-01-08T11:33:17.324Z,807.58
2023-01-08T11:34:17.334Z,807.51
2023-01-08T11:35:17.372Z,807.46
2023-01-08T11:36:17.336Z,807.48
2023-01-08T11:37:17.348Z,807.54
2023-01-08T11:38:17.354Z,807.60
2023-01-08T11:39:17.362Z,807.54
2023-01-08T11:40:17.359Z,807.57
2023-01-08T11:41:17.369Z,807.64
2023-01-08T11:42:17.396Z,807.73
2023-01-08T11:43:17.404Z,807.75
2023-01-08T11:44:17.377Z,807.81
2023-01-08T11:45:17.399Z,807.76
2023-01-08T11:46:17.397Z,807.70
2023-01-08T11:47:17.409Z,807.60
2023-01-08T11:48:17.414Z,807.60
2023-01-08T11:49:17.432Z,807.55
2023-01-08T11:50:17.512Z,807.60
2023-01-08T11:51:17.431Z,807.63
2023-01-08T11:52:17.440Z,807.66
2023-01-08T11:53:17.465Z,807.68
2023-01-08T11:54:17.439Z,807.70
2023-01-08T11:55:17.455Z,807.70
2023-01-08T11:56:17.464Z,807.69
2023-01-08T11:57:17.470Z,807.70
2023-01-08T11:58:17.489Z,807.66
2023-01-08T11:59:17.473Z,807.68
2023-01-08T12:00:17.482Z,807.66
2023-01-08T12:01:17.539Z,807.59
2023-01-08T12:02:17.563Z,807.57
2023-01-08T12:03:17.577Z,807.55
2023-01-08T12:04:17.511Z,807.56
2023-01-08T12:05:17.517Z,807.55
2023-01-08T12:06:17.523Z,807.55
2023-01-08T12:07:17.530Z,807.58
2023-01-08T12:08:17.530Z,807.63
2023-01-08T12:09:17.550Z,807.64
2023-01-08T12:10:17.639Z,807.68
2023-01-08T12:11:17.566Z,807.68
2023-01-08T12:12:17.556Z,807.67
2023-01-08T12:13:17.568Z,807.65
2023-01-08T12:14:17.611Z,807.65
2023-01-08T12:15:17.585Z,807.61
2023-01-08T12:16:17.618Z,807.57
2023-01-08T12:17:17.605Z,807.59
2023-01-08T12:18:17.592Z,807.60
2023-01-08T12:19:17.605Z,807.58
2023-01-08T12:20:17.690Z,807.52
2023-01-08T12:21:17.620Z,807.57
2023-01-08T12:22:17.619Z,807.55
2023-01-08T12:23:17.626Z,807.54
2023-01-08T12:24:17.641Z,807.51
2023-01-08T12:25:17.658Z,807.52
2023-01-08T12:26:17.646Z,807.46
2023-01-08T12:27:17.667Z,807.44
2023-01-08T12:28:17.661Z,807.44